createdAt,value
2023-04-13T00:00:17.537Z,13.69
2023-04-13T00:02:37.889Z,13.79
2023-04-13T00:03:41.023Z,13.62
2023-04-13T00:04:45.211Z,13.65
2023-04-13T00:05:47.752Z,13.67
2023-04-13T00:06:53.660Z,13.68
2023-04-13T00:07:56.547Z,13.67
2023-04-13T00:09:00.609Z,13.67
2023-04-13T00:10:08.956Z,13.68
2023-04-13T00:11:11.160Z,13.68
2023-04-13T00:12:17.945Z,13.67
2023-04-13T00:13:20.664Z,13.67
2023-04-13T00:14:24.847Z,13.67
2023-04-13T00:15:28.951Z,13.67
2023-04-13T00:16:33.686Z,13.68
2023-04-13T00:17:41.498Z,13.69
2023-04-13T00:18:46.371Z,13.68
2023-04-13T00:19:50.712Z,13.69
2023-04-13T00:20:54.902Z,13.69
2023-04-13T00:21:58.648Z,13.70
2023-04-13T00:23:07.838Z,13.70
2023-04-13T00:24:12.867Z,13.70
2023-04-13T00:25:19.928Z,13.69
2023-04-13T00:26:22.157Z,13.69
2023-04-13T00:27:24.993Z,13.68
2023-04-13T00:28:27.565Z,13.69
2023-04-13T00:29:30.279Z,13.70
2023-04-13T00:30:34.158Z,13.69
2023-04-13T00:31:38.562Z,13.70
2023-04-13T00:32:42.757Z,13.69
2023-04-13T00:33:44.921Z,13.67
2023-04-13T00:34:48.724Z,13.68
2023-04-13T00:35:52.318Z,13.67
2023-04-13T00:36:54.687Z,13.68
2023-04-13T00:37:56.826Z,13.68
2023-04-13T00:38:59.135Z,13.68
2023-04-13T00:40:01.893Z,13.68
2023-04-13T00:41:04.258Z,13.68
2023-04-13T00:42:06.486Z,13.68
2023-04-13T00:43:08.679Z,13.68
2023-04-13T00:44:14.908Z,13.68
2023-04-13T00:45:18.529Z,13.69
2023-04-13T00:46:23.766Z,13.68
2023-04-13T00:47:30.469Z,13.68
2023-04-13T00:48:33.566Z,13.68
2023-04-13T00:49:38.188Z,13.69
2023-04-13T00:50:42.629Z,13.68
2023-04-13T00:51:52.695Z,13.69
2023-04-13T00:52:58.500Z,13.70
2023-04-13T00:54:00.710Z,13.70
2023-04-13T00:55:03.156Z,13.68
2023-04-13T00:56:08.263Z,13.68
2023-04-13T00:57:12.539Z,13.68
2023-04-13T00:58:17.814Z,13.69
2023-04-13T00:59:22.256Z,13.68
2023-04-13T01:00:26.683Z,13.68
2023-04-13T01:01:30.501Z,13.67
2023-04-13T01:02:39.426Z,13.66
2023-04-13T01:03:49.080Z,13.66
2023-04-13T01:04:57.489Z,13.68
2023-04-13T01:06:31.559Z,13.69
2023-04-13T01:07:41.295Z,13.67
2023-04-13T01:08:55.247Z,13.66
2023-04-13T01:10:10.499Z,13.68
2023-04-13T01:12:47.011Z,13.79
2023-04-13T01:15:12.442Z,13.76
2023-04-13T01:16:24.320Z,13.59
2023-04-13T01:17:32.983Z,13.60
2023-04-13T01:18:38.236Z,13.61
2023-04-13T01:20:03.189Z,13.63
2023-04-13T01:22:12.653Z,13.62
2023-04-13T01:23:39.959Z,13.62
2023-04-13T01:26:19.818Z,13.77
2023-04-13T01:27:44.077Z,13.59
2023-04-13T01:28:47.086Z,13.60
2023-04-13T01:29:50.407Z,13.62
2023-04-13T01:30:53.753Z,13.60
2023-04-13T01:31:57.026Z,13.60
2023-04-13T01:33:00.036Z,13.60
2023-04-13T01:34:03.485Z,13.60
2023-04-13T01:35:07.535Z,13.61
2023-04-13T01:36:11.386Z,13.61
2023-04-13T01:37:14.294Z,13.62
2023-04-13T01:38:20.321Z,13.62
2023-04-13T01:39:23.548Z,13.62
2023-04-13T01:40:29.448Z,13.62
2023-04-13T01:41:32.784Z,13.62
2023-04-13T01:42:34.838Z,13.61
2023-04-13T01:43:37.888Z,13.61
2023-04-13T01:44:44.414Z,13.61
2023-04-13T01:45:51.232Z,13.60
2023-04-13T01:46:55.649Z,13.61
2023-04-13T01:48:31.543Z,13.61
2023-04-13T01:49:36.137Z,13.62
2023-04-13T01:50:51.834Z,13.62
2023-04-13T01:51:57.545Z,13.62
2023-04-13T01:53:07.008Z,13.62
2023-04-13T01:54:13.438Z,13.62
2023-04-13T01:55:18.071Z,13.62
2023-04-13T01:56:22.676Z,13.63
2023-04-13T01:57:28.529Z,13.62
2023-04-13T01:58:33.259Z,13.61
2023-04-13T01:59:37.990Z,13.61
2023-04-13T02:00:41.178Z,13.60
2023-04-13T02:01:45.475Z,13.61
2023-04-13T02:02:49.117Z,13.61
2023-04-13T02:03:52.850Z,13.62
2023-04-13T02:04:55.085Z,13.61
2023-04-13T02:05:57.286Z,13.60
2023-04-13T02:06:59.801Z,13.60
2023-04-13T02:08:05.318Z,13.62
2023-04-13T02:09:08.191Z,13.62
2023-04-13T02:10:17.244Z,13.61
2023-04-13T02:11:20.447Z,13.61
2023-04-13T02:12:22.763Z,13.62
2023-04-13T02:13:24.946Z,13.64
2023-04-13T02:14:27.056Z,13.63
2023-04-13T02:15:30.730Z,13.62
2023-04-13T02:16:33.206Z,13.63
2023-04-13T02:17:36.330Z,13.61
2023-04-13T02:18:39.009Z,13.61
2023-04-13T02:19:41.188Z,13.60
2023-04-13T02:20:43.472Z,13.60
2023-04-13T02:21:45.516Z,13.60
2023-04-13T02:22:49.487Z,13.60
2023-04-13T02:23:52.071Z,13.60
2023-04-13T02:24:54.639Z,13.60
2023-04-13T02:25:57.646Z,13.61
2023-04-13T02:27:00.936Z,13.60
2023-04-13T02:28:03.319Z,13.60
2023-04-13T02:29:06.300Z,13.60
2023-04-13T02:30:09.821Z,13.61
2023-04-13T02:31:13.925Z,13.61
2023-04-13T02:32:16.275Z,13.61
2023-04-13T02:33:20.521Z,13.62
2023-04-13T02:34:22.851Z,13.61
2023-04-13T02:35:25.387Z,13.63
2023-04-13T02:36:28.374Z,13.62
2023-04-13T02:37:32.510Z,13.63
2023-04-13T02:38:34.945Z,13.62
2023-04-13T02:39:38.947Z,13.62
2023-04-13T02:40:42.730Z,13.62
2023-04-13T02:41:45.364Z,13.62
2023-04-13T02:42:49.562Z,13.62
2023-04-13T02:43:52.648Z,13.62
2023-04-13T02:46:13.789Z,13.75
2023-04-13T02:47:17.690Z,13.59
2023-04-13T02:48:21.226Z,13.60
2023-04-13T02:49:23.341Z,13.61
2023-04-13T02:50:33.166Z,13.61
2023-04-13T02:51:37.174Z,13.62
2023-04-13T02:52:40.178Z,13.61
2023-04-13T02:53:42.912Z,13.62
2023-04-13T02:54:45.446Z,13.61
2023-04-13T02:55:48.112Z,13.63
2023-04-13T02:57:10.352Z,13.62
2023-04-13T02:58:13.821Z,13.62
2023-04-13T02:59:20.790Z,13.63
2023-04-13T03:00:23.363Z,13.62
2023-04-13T03:01:27.854Z,13.62
2023-04-13T03:02:30.529Z,13.61
2023-04-13T03:03:33.777Z,13.61
2023-04-13T03:04:36.394Z,13.62
2023-04-13T03:05:38.627Z,13.63
2023-04-13T03:06:41.375Z,13.62
2023-04-13T03:07:43.876Z,13.62
2023-04-13T03:08:46.120Z,13.62
2023-04-13T03:09:53.269Z,13.62
2023-04-13T03:10:55.930Z,13.61
2023-04-13T03:11:58.659Z,13.61
2023-04-13T03:13:01.679Z,13.62
2023-04-13T03:14:03.753Z,13.62
2023-04-13T03:15:07.381Z,13.62
2023-04-13T03:16:11.391Z,13.62
2023-04-13T03:17:13.793Z,13.61
2023-04-13T03:18:16.919Z,13.62
2023-04-13T03:19:19.000Z,13.61
2023-04-13T03:20:23.652Z,13.61
2023-04-13T03:21:31.135Z,13.61
2023-04-13T03:22:35.860Z,13.61
2023-04-13T03:23:38.839Z,13.60
2023-04-13T03:24:42.891Z,13.61
2023-04-13T03:25:47.747Z,13.61
2023-04-13T03:26:51.232Z,13.61
2023-04-13T03:27:55.322Z,13.61
2023-04-13T03:28:58.738Z,13.62
2023-04-13T03:30:02.300Z,13.61
2023-04-13T03:31:06.597Z,13.61
2023-04-13T03:32:10.724Z,13.60
2023-04-13T03:33:13.556Z,13.62
2023-04-13T03:34:17.590Z,13.61
2023-04-13T03:35:20.575Z,13.62
2023-04-13T03:37:34.897Z,13.74
2023-04-13T03:38:38.801Z,13.58
2023-04-13T03:39:41.481Z,13.60
2023-04-13T03:40:46.112Z,13.60
2023-04-13T03:41:48.391Z,13.61
2023-04-13T03:42:51.440Z,13.61
2023-04-13T03:43:54.740Z,13.61
2023-04-13T03:44:57.843Z,13.62
2023-04-13T03:46:00.194Z,13.63
2023-04-13T03:47:02.455Z,13.62
2023-04-13T03:48:06.749Z,13.62
2023-04-13T03:49:09.991Z,13.63
2023-04-13T03:50:13.612Z,13.62
2023-04-13T03:51:16.182Z,13.62
2023-04-13T03:52:20.296Z,13.63
2023-04-13T03:53:24.587Z,13.61
2023-04-13T03:54:28.489Z,13.61
2023-04-13T03:55:32.630Z,13.63
2023-04-13T03:56:36.741Z,13.64
2023-04-13T03:57:39.661Z,13.63
2023-04-13T03:58:43.496Z,13.63
2023-04-13T03:59:46.386Z,13.63
2023-04-13T04:00:49.516Z,13.63
2023-04-13T04:03:11.285Z,13.75
2023-04-13T04:04:30.982Z,13.59
2023-04-13T04:05:33.215Z,13.62
2023-04-13T04:06:37.322Z,13.62
2023-04-13T04:07:44.084Z,13.63
2023-04-13T04:08:46.451Z,13.63
2023-04-13T04:09:54.136Z,13.64
2023-04-13T04:10:59.370Z,13.63
2023-04-13T04:12:02.712Z,13.61
2023-04-13T04:13:12.815Z,13.62
2023-04-13T04:14:17.735Z,13.63
2023-04-13T04:15:25.813Z,13.63
2023-04-13T04:16:30.246Z,13.62
2023-04-13T04:17:35.410Z,13.62
2023-04-13T04:18:40.454Z,13.63
2023-04-13T04:19:43.877Z,13.62
2023-04-13T04:20:46.410Z,13.62
2023-04-13T04:21:49.263Z,13.63
2023-04-13T04:22:52.881Z,13.63
2023-04-13T04:23:55.933Z,13.65
2023-04-13T04:24:58.481Z,13.64
2023-04-13T04:26:01.047Z,13.65
2023-04-13T04:27:05.206Z,13.66
2023-04-13T04:28:07.813Z,13.66
2023-04-13T04:29:11.860Z,13.68
2023-04-13T04:30:17.173Z,13.66
2023-04-13T04:31:21.888Z,13.68
2023-04-13T04:32:26.133Z,13.68
2023-04-13T04:33:31.663Z,13.69
2023-04-13T04:34:34.332Z,13.70
2023-04-13T04:35:40.794Z,13.69
2023-04-13T04:36:43.105Z,13.70
2023-04-13T04:37:45.391Z,13.71
2023-04-13T04:38:49.377Z,13.71
2023-04-13T04:39:51.677Z,13.72
2023-04-13T04:40:54.490Z,13.74
2023-04-13T04:41:57.075Z,13.75
2023-04-13T04:42:59.129Z,13.75
2023-04-13T04:44:05.960Z,13.75
2023-04-13T04:45:10.513Z,13.76
2023-04-13T04:46:16.218Z,13.75
2023-04-13T04:47:21.100Z,13.75
2023-04-13T04:48:25.545Z,13.75
2023-04-13T04:49:29.620Z,13.75
2023-04-13T04:50:33.434Z,13.75
2023-04-13T04:51:39.732Z,13.77
2023-04-13T04:52:42.224Z,13.76
2023-04-13T04:53:45.553Z,13.76
2023-04-13T04:54:48.697Z,13.76
2023-04-13T04:55:54.699Z,13.78
2023-04-13T04:57:01.739Z,13.78
2023-04-13T04:58:05.178Z,13.81
2023-04-13T04:59:08.133Z,13.82
2023-04-13T05:00:15.438Z,13.83
2023-04-13T05:01:19.755Z,13.84
2023-04-13T05:02:23.378Z,13.85
2023-04-13T05:03:26.190Z,13.85
2023-04-13T05:04:30.179Z,13.87
2023-04-13T05:05:32.749Z,13.88
2023-04-13T05:06:37.519Z,13.87
2023-04-13T05:07:40.912Z,13.88
2023-04-13T05:08:43.932Z,13.90
2023-04-13T05:09:47.167Z,13.89
2023-04-13T05:10:50.407Z,13.90
2023-04-13T05:11:53.408Z,13.92
2023-04-13T05:12:56.832Z,13.93
2023-04-13T05:14:00.333Z,13.95
2023-04-13T05:15:03.852Z,13.97
2023-04-13T05:16:08.215Z,13.99
2023-04-13T05:17:10.372Z,14.01
2023-04-13T05:18:14.521Z,14.01
2023-04-13T05:19:16.720Z,14.02
2023-04-13T05:20:27.135Z,14.05
2023-04-13T05:21:31.185Z,14.06
2023-04-13T05:22:34.201Z,14.07
2023-04-13T05:23:38.252Z,14.08
2023-04-13T05:24:42.710Z,14.09
2023-04-13T05:25:46.726Z,14.09
2023-04-13T05:26:54.850Z,14.10
2023-04-13T05:27:58.003Z,14.11
2023-04-13T05:29:01.992Z,14.11
2023-04-13T05:30:08.021Z,14.09
2023-04-13T05:31:12.370Z,14.11
2023-04-13T05:32:17.134Z,14.10
2023-04-13T05:33:21.796Z,14.12
2023-04-13T05:34:25.817Z,14.11
2023-04-13T05:35:32.544Z,14.11
2023-04-13T05:36:36.500Z,14.13
2023-04-13T05:37:40.649Z,14.16
2023-04-13T05:38:44.579Z,14.16
2023-04-13T05:39:47.136Z,14.17
2023-04-13T05:40:51.893Z,14.19
2023-04-13T05:41:54.524Z,14.21
2023-04-13T05:42:57.094Z,14.22
2023-04-13T05:44:01.173Z,14.24
2023-04-13T05:45:05.140Z,14.25
2023-04-13T05:46:09.526Z,14.28
2023-04-13T05:47:13.632Z,14.29
2023-04-13T05:48:17.337Z,14.30
2023-04-13T05:49:20.349Z,14.32
2023-04-13T05:50:23.395Z,14.32
2023-04-13T05:51:25.604Z,14.34
2023-04-13T05:52:28.310Z,14.35
2023-04-13T05:53:30.985Z,14.37
2023-04-13T05:54:34.223Z,14.37
2023-04-13T05:55:36.996Z,14.39
2023-04-13T05:56:40.368Z,14.40
2023-04-13T05:57:43.083Z,14.41
2023-04-13T05:58:47.723Z,14.42
2023-04-13T05:59:54.822Z,14.42
2023-04-13T06:00:58.949Z,14.42
2023-04-13T06:02:03.565Z,14.42
2023-04-13T06:03:06.964Z,14.42
2023-04-13T06:04:10.307Z,14.44
2023-04-13T06:05:13.459Z,14.44
2023-04-13T06:06:16.019Z,14.45
2023-04-13T06:07:20.215Z,14.46
2023-04-13T06:08:23.467Z,14.45
2023-04-13T06:09:26.467Z,14.45
2023-04-13T06:10:29.707Z,14.46
2023-04-13T06:11:31.948Z,14.46
2023-04-13T06:12:35.337Z,14.45
2023-04-13T06:13:37.689Z,14.46
2023-04-13T06:14:40.934Z,14.47
2023-04-13T06:15:43.153Z,14.48
2023-04-13T06:16:45.979Z,14.49
2023-04-13T06:17:51.753Z,14.49
2023-04-13T06:18:54.092Z,14.50
2023-04-13T06:19:56.151Z,14.51
2023-04-13T06:20:59.046Z,14.51
2023-04-13T06:22:01.227Z,14.54
2023-04-13T06:23:05.146Z,14.55
2023-04-13T06:24:08.671Z,14.55
2023-04-13T06:25:13.690Z,14.80
2023-04-13T06:26:16.552Z,14.91
2023-04-13T06:27:20.608Z,14.93
2023-04-13T06:28:24.639Z,14.96
2023-04-13T06:29:27.016Z,14.99
2023-04-13T06:30:31.418Z,15.01
2023-04-13T06:31:34.000Z,15.01
2023-04-13T06:32:38.018Z,15.03
2023-04-13T06:33:41.068Z,15.03
2023-04-13T06:34:43.542Z,15.03
2023-04-13T06:35:45.848Z,15.04
2023-04-13T06:36:48.677Z,15.03
2023-04-13T06:37:52.018Z,15.02
2023-04-13T06:38:59.385Z,15.02
2023-04-13T06:40:02.300Z,15.00
2023-04-13T06:41:05.122Z,15.00
2023-04-13T06:42:09.342Z,14.99
2023-04-13T06:44:25.161Z,15.08
2023-04-13T06:45:29.220Z,14.93
2023-04-13T06:46:31.719Z,14.92
2023-04-13T06:47:37.793Z,14.93
2023-04-13T06:48:39.989Z,14.92
2023-04-13T06:49:42.175Z,14.93
2023-04-13T06:50:45.782Z,14.91
2023-04-13T06:51:48.063Z,14.92
2023-04-13T06:52:51.178Z,14.93
2023-04-13T06:53:53.497Z,14.93
2023-04-13T06:54:56.440Z,14.93
2023-04-13T06:56:00.449Z,14.93
2023-04-13T06:57:03.749Z,14.94
2023-04-13T06:58:05.993Z,14.94
2023-04-13T06:59:08.417Z,14.95
2023-04-13T07:00:28.391Z,14.96
2023-04-13T07:01:18.889Z,14.96
2023-04-13T07:03:24.337Z,14.98
2023-04-13T07:04:29.680Z,14.98
2023-04-13T07:05:32.286Z,15.00
2023-04-13T07:06:36.959Z,15.01
2023-04-13T07:07:40.993Z,15.02
2023-04-13T07:08:43.831Z,15.05
2023-04-13T07:09:46.048Z,15.05
2023-04-13T07:12:06.333Z,15.08
2023-04-13T07:14:12.621Z,15.12
2023-04-13T07:15:15.356Z,15.13
2023-04-13T07:16:19.502Z,15.16
2023-04-13T07:19:38.817Z,15.22
2023-04-13T07:20:41.182Z,15.24
2023-04-13T07:21:47.742Z,15.26
2023-04-13T07:22:49.852Z,15.29
2023-04-13T07:23:52.138Z,15.32
2023-04-13T07:24:55.280Z,15.33
2023-04-13T07:26:06.779Z,15.35
2023-04-13T07:27:11.544Z,15.36
2023-04-13T07:28:13.916Z,15.36
2023-04-13T07:29:17.529Z,15.38
2023-04-13T07:30:25.202Z,15.40
2023-04-13T07:31:29.466Z,15.40
2023-04-13T07:32:34.204Z,15.42
2023-04-13T07:33:37.901Z,15.44
2023-04-13T07:34:42.060Z,15.46
2023-04-13T07:35:46.619Z,15.47
2023-04-13T07:36:49.246Z,15.48
2023-04-13T07:37:53.600Z,15.49
2023-04-13T07:39:01.395Z,15.51
2023-04-13T07:40:09.680Z,15.51
2023-04-13T07:41:13.835Z,15.52
2023-04-13T07:42:17.862Z,15.54
2023-04-13T07:43:28.748Z,15.57
2023-04-13T07:44:33.534Z,15.58
2023-04-13T07:45:37.347Z,15.58
2023-04-13T07:46:40.498Z,15.60
2023-04-13T07:47:43.386Z,15.62
2023-04-13T07:48:46.538Z,15.63
2023-04-13T07:49:51.329Z,15.64
2023-04-13T07:50:55.208Z,15.65
2023-04-13T07:51:58.369Z,15.65
2023-04-13T07:53:02.325Z,15.65
2023-04-13T07:54:05.396Z,15.66
2023-04-13T07:55:10.109Z,15.69
2023-04-13T07:56:15.092Z,15.86
2023-04-13T07:57:18.193Z,16.05
2023-04-13T07:58:22.338Z,16.24
2023-04-13T07:59:25.360Z,16.30
2023-04-13T08:00:28.626Z,16.26
2023-04-13T08:01:32.096Z,16.22
2023-04-13T08:03:58.695Z,16.33
2023-04-13T08:05:01.642Z,16.13
2023-04-13T08:06:08.587Z,16.12
2023-04-13T08:07:10.898Z,16.09
2023-04-13T08:08:13.185Z,16.05
2023-04-13T08:09:17.209Z,16.01
2023-04-13T08:10:19.782Z,15.99
2023-04-13T08:11:21.979Z,15.94
2023-04-13T08:12:25.922Z,15.91
2023-04-13T08:13:29.326Z,15.88
2023-04-13T08:14:34.696Z,15.83
2023-04-13T08:15:37.747Z,15.79
2023-04-13T08:16:42.149Z,15.77
2023-04-13T08:17:47.475Z,15.73
2023-04-13T08:18:52.127Z,15.71
2023-04-13T08:19:57.018Z,15.66
2023-04-13T08:20:59.578Z,15.62
2023-04-13T08:22:03.627Z,15.59
2023-04-13T08:23:12.622Z,15.55
2023-04-13T08:24:18.263Z,15.53
2023-04-13T08:25:20.956Z,15.49
2023-04-13T08:26:24.597Z,15.46
2023-04-13T08:27:32.201Z,15.42
2023-04-13T08:28:34.603Z,15.38
2023-04-13T08:29:41.096Z,15.36
2023-04-13T08:30:44.961Z,15.35
2023-04-13T08:31:52.244Z,15.30
2023-04-13T08:32:58.395Z,15.28
2023-04-13T08:34:02.256Z,15.25
2023-04-13T08:35:07.279Z,15.23
2023-04-13T08:36:11.006Z,15.22
2023-04-13T08:37:13.834Z,15.18
2023-04-13T08:38:16.448Z,15.19
2023-04-13T08:39:20.690Z,15.16
2023-04-13T08:40:23.936Z,15.14
2023-04-13T08:41:28.731Z,15.16
2023-04-13T08:42:34.539Z,15.13
2023-04-13T08:43:39.349Z,15.12
2023-04-13T08:44:42.816Z,15.11
2023-04-13T08:45:46.253Z,15.09
2023-04-13T08:47:02.246Z,15.08
2023-04-13T08:48:10.141Z,15.05
2023-04-13T08:49:13.338Z,15.04
2023-04-13T08:50:18.665Z,15.06
2023-04-13T08:51:24.519Z,15.05
2023-04-13T08:52:28.708Z,15.05
2023-04-13T08:53:31.599Z,15.04
2023-04-13T08:54:34.315Z,15.02
2023-04-13T08:55:46.047Z,15.05
2023-04-13T08:56:49.416Z,15.04
2023-04-13T08:57:57.933Z,15.04
2023-04-13T08:59:04.346Z,15.02
2023-04-13T09:00:10.547Z,15.02
2023-04-13T09:01:13.326Z,15.03
2023-04-13T09:02:19.110Z,15.04
2023-04-13T09:03:25.515Z,15.02
2023-04-13T09:04:31.488Z,15.02
2023-04-13T09:05:40.128Z,15.03
2023-04-13T09:06:45.516Z,15.03
2023-04-13T09:07:49.865Z,15.05
2023-04-13T09:08:56.067Z,15.03
2023-04-13T09:10:00.262Z,15.06
2023-04-13T09:11:05.673Z,15.05
2023-04-13T09:13:33.079Z,15.19
2023-04-13T09:14:41.027Z,15.07
2023-04-13T09:15:50.235Z,15.06
2023-04-13T09:17:00.698Z,15.10
2023-04-13T09:18:14.884Z,15.11
2023-04-13T09:19:33.096Z,15.12
2023-04-13T09:33:06.768Z,15.54
2023-04-13T09:34:09.945Z,15.44
2023-04-13T09:35:12.574Z,15.43
2023-04-13T09:36:17.833Z,15.47
2023-04-13T09:37:20.057Z,15.47
2023-04-13T09:38:27.299Z,15.46
2023-04-13T09:39:29.595Z,15.50
2023-04-13T09:42:19.334Z,15.64
2023-04-13T09:43:26.511Z,15.46
2023-04-13T09:44:29.272Z,15.47
2023-04-13T09:46:59.700Z,15.62
2023-04-13T09:48:03.714Z,15.48
2023-04-13T09:49:07.562Z,15.48
2023-04-13T09:50:26.241Z,15.47
2023-04-13T09:51:40.220Z,15.48
2023-04-13T09:52:42.953Z,15.47
2023-04-13T09:53:46.736Z,15.47
2023-04-13T09:54:51.783Z,15.48
2023-04-13T09:56:01.896Z,15.46
2023-04-13T09:57:07.045Z,15.47
2023-04-13T09:59:39.284Z,15.46
2023-04-13T10:00:44.184Z,15.45
2023-04-13T10:01:47.340Z,15.45
2023-04-13T10:02:51.575Z,15.41
2023-04-13T10:03:53.836Z,15.38
2023-04-13T10:04:57.578Z,15.34
2023-04-13T10:06:00.601Z,15.34
2023-04-13T10:07:05.727Z,15.31
2023-04-13T10:08:08.819Z,15.28
2023-04-13T10:09:12.251Z,15.26
2023-04-13T10:10:16.918Z,15.22
2023-04-13T10:11:19.685Z,15.21
2023-04-13T10:12:23.889Z,15.20
2023-04-13T10:13:30.724Z,15.19
2023-04-13T10:14:36.890Z,15.16
2023-04-13T10:15:51.450Z,15.14
2023-04-13T10:17:16.459Z,15.11
2023-04-13T10:18:31.443Z,15.07
2023-04-13T10:19:38.824Z,15.06
2023-04-13T10:20:43.795Z,15.03
2023-04-13T10:21:48.440Z,15.01
2023-04-13T10:22:52.420Z,14.99
2023-04-13T10:23:55.138Z,14.96
2023-04-13T10:25:01.951Z,14.93
2023-04-13T10:26:04.701Z,14.93
2023-04-13T10:27:14.923Z,14.91
2023-04-13T10:28:21.271Z,14.88
2023-04-13T10:29:30.800Z,14.85
2023-04-13T10:31:52.056Z,14.91
2023-04-13T10:33:07.051Z,14.74
2023-04-13T10:34:24.742Z,14.73
2023-04-13T10:35:27.766Z,14.73
2023-04-13T10:36:43.609Z,14.73
2023-04-13T10:39:08.089Z,14.80
2023-04-13T10:40:18.168Z,14.84
2023-04-13T10:43:01.473Z,15.17
2023-04-13T10:44:07.822Z,14.99
2023-04-13T10:45:21.218Z,15.05
2023-04-13T10:46:34.607Z,15.04
2023-04-13T10:47:43.260Z,15.06
2023-04-13T10:50:15.755Z,15.19
2023-04-13T10:51:19.937Z,15.00
2023-04-13T10:52:22.150Z,15.00
2023-04-13T10:53:27.025Z,15.01
2023-04-13T10:54:30.263Z,14.99
2023-04-13T10:55:34.136Z,14.97
2023-04-13T10:56:37.082Z,14.96
2023-04-13T10:57:39.238Z,14.95
2023-04-13T10:58:41.296Z,14.92
2023-04-13T11:02:19.151Z,14.98
2023-04-13T11:03:21.673Z,14.81
2023-04-13T11:04:24.193Z,14.83
2023-04-13T11:05:26.898Z,14.81
2023-04-13T11:06:36.918Z,14.82
2023-04-13T11:07:40.239Z,14.82
2023-04-13T11:08:48.573Z,14.82
2023-04-13T11:09:48.390Z,14.79
2023-04-13T11:10:53.569Z,14.78
2023-04-13T11:11:55.757Z,14.77
2023-04-13T11:12:58.532Z,14.78
2023-04-13T11:14:01.045Z,14.75
2023-04-13T11:15:03.847Z,14.77
2023-04-13T11:16:07.276Z,14.74
2023-04-13T11:18:29.289Z,14.84
2023-04-13T11:19:34.665Z,14.67
2023-04-13T11:20:39.447Z,14.68
2023-04-13T11:21:41.625Z,14.66
2023-04-13T11:22:47.324Z,14.68
2023-04-13T11:23:52.769Z,14.65
2023-04-13T11:25:07.004Z,14.65
2023-04-13T11:26:09.814Z,14.64
2023-04-13T11:27:20.082Z,14.62
2023-04-13T11:28:22.771Z,14.61
2023-04-13T11:29:25.234Z,14.62
2023-04-13T11:30:27.711Z,14.61
2023-04-13T11:31:38.675Z,14.57
2023-04-13T11:32:42.268Z,14.56
2023-04-13T11:33:48.300Z,14.57
2023-04-13T11:34:50.854Z,14.57
2023-04-13T11:35:54.528Z,14.58
2023-04-13T11:37:02.520Z,14.55
2023-04-13T11:38:04.630Z,14.53
2023-04-13T11:39:10.220Z,14.54
2023-04-13T11:40:13.254Z,14.55
2023-04-13T11:41:17.309Z,14.53
2023-04-13T11:42:20.345Z,14.53
2023-04-13T11:43:22.646Z,14.53
2023-04-13T11:44:24.783Z,14.54
2023-04-13T11:45:29.834Z,14.55
2023-04-13T11:46:33.533Z,14.55
2023-04-13T11:47:36.273Z,14.56
2023-04-13T11:48:38.855Z,14.55
2023-04-13T11:49:42.502Z,14.55
2023-04-13T11:50:45.994Z,14.53
2023-04-13T11:51:48.301Z,14.54
2023-04-13T11:52:54.003Z,14.52
2023-04-13T11:53:56.796Z,14.54
2023-04-13T11:55:10.734Z,14.53
2023-04-13T11:56:07.383Z,14.53
2023-04-13T11:57:10.337Z,14.54
2023-04-13T11:58:16.433Z,14.54
2023-04-13T11:59:24.936Z,14.54
2023-04-13T12:00:28.100Z,14.54
2023-04-13T12:01:34.114Z,14.55
2023-04-13T12:02:43.125Z,14.56
2023-04-13T12:04:49.525Z,14.67
2023-04-13T12:05:56.159Z,14.53
2023-04-13T12:07:00.276Z,14.56
2023-04-13T12:08:03.665Z,14.57
2023-04-13T12:09:10.916Z,14.58
2023-04-13T12:10:22.948Z,14.57
2023-04-13T12:16:10.663Z,14.59
2023-04-13T12:17:36.344Z,14.60
2023-04-13T12:18:23.553Z,14.61
2023-04-13T12:19:26.256Z,14.61
2023-04-13T12:20:35.735Z,14.64
2023-04-13T12:21:38.208Z,14.64
2023-04-13T12:22:52.585Z,14.68
2023-04-13T12:23:54.907Z,14.69
2023-04-13T12:24:59.313Z,14.71
2023-04-13T12:26:25.505Z,14.70
2023-04-13T12:28:13.240Z,14.75
2023-04-13T12:29:16.019Z,14.75
2023-04-13T12:30:20.795Z,14.77
2023-04-13T12:31:23.426Z,14.77
2023-04-13T12:32:26.003Z,14.79
2023-04-13T12:33:28.381Z,14.78
2023-04-13T12:34:30.480Z,14.78
2023-04-13T12:35:33.811Z,14.77
2023-04-13T12:36:36.236Z,14.78
2023-04-13T12:37:42.564Z,14.79
2023-04-13T12:38:45.357Z,14.78
2023-04-13T12:39:47.689Z,14.78
2023-04-13T12:42:25.375Z,14.91
2023-04-13T12:43:28.166Z,14.75
2023-04-13T12:44:31.823Z,14.76
2023-04-13T12:45:34.277Z,14.75
2023-04-13T12:46:36.594Z,14.77
2023-04-13T12:47:39.640Z,14.76
2023-04-13T12:48:41.900Z,14.75
2023-04-13T12:49:44.122Z,14.76
2023-04-13T12:50:46.448Z,14.76
2023-04-13T12:51:48.712Z,14.77
2023-04-13T12:52:50.839Z,14.76
2023-04-13T12:53:53.556Z,14.77
2023-04-13T12:54:55.971Z,14.78
2023-04-13T12:55:58.086Z,14.79
2023-04-13T12:57:00.574Z,14.76
2023-04-13T12:58:03.334Z,14.77
2023-04-13T12:59:06.041Z,14.77
2023-04-13T13:00:09.901Z,14.78
2023-04-13T13:01:12.535Z,14.79
2023-04-13T13:02:18.224Z,14.78
2023-04-13T13:03:22.181Z,14.80
2023-04-13T13:04:25.755Z,14.81
2023-04-13T13:05:28.150Z,14.80
2023-04-13T13:06:30.771Z,14.80
2023-04-13T13:07:33.006Z,14.81
2023-04-13T13:08:38.412Z,14.81
2023-04-13T13:09:41.214Z,14.80
2023-04-13T13:10:44.453Z,14.81
2023-04-13T13:12:58.428Z,14.92
2023-04-13T13:14:00.603Z,14.77
2023-04-13T13:15:05.743Z,14.79
2023-04-13T13:16:09.700Z,14.80
2023-04-13T13:17:12.000Z,14.80
2023-04-13T13:18:16.580Z,14.80
2023-04-13T13:19:19.059Z,14.80
2023-04-13T13:20:24.669Z,14.82
2023-04-13T13:21:28.441Z,14.82
2023-04-13T13:22:31.160Z,14.83
2023-04-13T13:23:33.230Z,14.82
2023-04-13T13:24:36.763Z,14.83
2023-04-13T13:25:41.211Z,14.82
2023-04-13T13:27:12.123Z,14.84
2023-04-13T13:28:56.784Z,14.83
2023-04-13T13:29:58.797Z,14.83
2023-04-13T13:31:01.231Z,14.82
2023-04-13T13:32:03.838Z,14.84
2023-04-13T13:33:06.395Z,14.85
2023-04-13T13:34:09.276Z,14.82
2023-04-13T13:35:11.324Z,14.83
2023-04-13T13:36:13.723Z,14.81
2023-04-13T13:37:16.113Z,14.83
2023-04-13T13:38:18.354Z,14.83
2023-04-13T13:39:20.632Z,14.82
2023-04-13T13:40:24.032Z,14.81
2023-04-13T13:41:27.200Z,14.80
2023-04-13T13:42:37.599Z,14.81
2023-04-13T13:43:33.681Z,14.80
2023-04-13T13:44:37.135Z,14.80
2023-04-13T13:45:40.625Z,14.80
2023-04-13T13:46:43.507Z,14.78
2023-04-13T13:47:51.531Z,14.79
2023-04-13T13:48:53.873Z,14.79
2023-04-13T13:49:58.219Z,14.79
2023-04-13T13:51:11.878Z,14.80
2023-04-13T13:52:14.339Z,14.79
2023-04-13T13:53:18.449Z,14.78
2023-04-13T13:54:20.721Z,14.78
2023-04-13T13:55:23.064Z,14.78
2023-04-13T13:56:28.094Z,14.79
2023-04-13T13:57:30.880Z,14.77
2023-04-13T13:58:33.219Z,14.76
2023-04-13T13:59:35.913Z,14.76
2023-04-13T14:00:45.323Z,14.77
2023-04-13T14:01:48.052Z,14.77
2023-04-13T14:02:51.105Z,14.77
2023-04-13T14:03:54.061Z,14.75
2023-04-13T14:04:56.807Z,14.75
2023-04-13T14:05:59.132Z,14.74
2023-04-13T14:07:14.703Z,14.75
2023-04-13T14:08:17.071Z,14.74
2023-04-13T14:09:21.126Z,14.75
2023-04-13T14:10:23.340Z,14.73
2023-04-13T14:11:26.125Z,14.74
2023-04-13T14:12:28.870Z,14.74
2023-04-13T14:13:31.498Z,14.74
2023-04-13T14:14:33.768Z,14.74
2023-04-13T14:15:36.542Z,14.73
2023-04-13T14:16:39.010Z,14.74
2023-04-13T14:17:42.544Z,14.74
2023-04-13T14:18:44.669Z,14.74
2023-04-13T14:19:46.886Z,14.74
2023-04-13T14:20:50.455Z,14.72
2023-04-13T14:21:53.274Z,14.72
2023-04-13T14:22:57.604Z,14.72
2023-04-13T14:25:11.731Z,14.82
2023-04-13T14:26:15.779Z,14.65
2023-04-13T14:27:18.683Z,14.66
2023-04-13T14:28:21.018Z,14.67
2023-04-13T14:29:23.956Z,14.67
2023-04-13T14:30:28.169Z,14.66
2023-04-13T14:31:30.883Z,14.65
2023-04-13T14:32:33.698Z,14.65
2023-04-13T14:33:37.834Z,14.64
2023-04-13T14:34:40.086Z,14.62
2023-04-13T14:35:42.249Z,14.62
2023-04-13T14:36:49.152Z,14.61
2023-04-13T14:37:53.447Z,14.61
2023-04-13T14:38:58.272Z,14.60
2023-04-13T14:40:00.737Z,14.58
2023-04-13T14:41:03.293Z,14.58
2023-04-13T14:42:06.189Z,14.59
2023-04-13T14:43:08.471Z,14.58
2023-04-13T14:44:10.646Z,14.57
2023-04-13T14:45:13.341Z,14.57
2023-04-13T14:46:16.595Z,14.55
2023-04-13T14:47:18.912Z,14.55
2023-04-13T14:48:21.129Z,14.55
2023-04-13T14:49:23.564Z,14.54